Time;durP1;ratioP1;P1;durP2;ratioP2;P2;SDS_P1;SDS_P2;PMS_P1;PMS_P2;Temp;Humidity;BMP_temperature;BMP_pressure;BME280_temperature;BME280_humidity;BME280_pressure;Samples;Min_cycle;Max_cycle;Signal;HPM_P1;HPM_P2
2023/07/24 00:00:45;;;;;;;12.30;7.47;;;18.90;99.90;;;;;;5038842;28;20188;-30
2023/07/24 00:03:11;;;;;;;10.35;6.80;;;18.90;99.90;;;;;;5041691;28;20193;-31
2023/07/24 00:05:37;;;;;;;11.68;7.53;;;18.90;99.90;;;;;;5047913;28;20176;-31
2023/07/24 00:08:03;;;;;;;12.88;7.95;;;18.80;99.90;;;;;;5049732;28;20188;-29
2023/07/24 00:10:28;;;;;;;11.75;7.80;;;18.80;99.90;;;;;;5040749;28;20204;-31
2023/07/24 00:12:54;;;;;;;11.43;7.60;;;18.70;99.90;;;;;;5053563;28;20187;-30
2023/07/24 00:15:20;;;;;;;10.90;7.50;;;18.70;99.90;;;;;;5055172;28;20197;-30
2023/07/24 00:17:46;;;;;;;12.27;7.53;;;18.50;99.90;;;;;;5048330;28;20219;-30
2023/07/24 00:20:12;;;;;;;12.27;7.90;;;18.50;99.90;;;;;;5049311;28;20297;-30
2023/07/24 00:22:38;;;;;;;11.55;7.15;;;18.40;99.90;;;;;;5049517;28;20275;-31
2023/07/24 00:25:05;;;;;;;10.60;7.60;;;18.50;99.90;;;;;;5048447;28;20205;-29
2023/07/24 00:27:31;;;;;;;11.23;7.47;;;18.60;99.90;;;;;;5049372;28;20285;-30
2023/07/24 00:29:57;;;;;;;10.00;7.28;;;18.60;99.90;;;;;;5053077;28;20285;-30
2023/07/24 00:32:23;;;;;;;12.23;7.57;;;18.60;99.90;;;;;;5043736;28;20640;-31
2023/07/24 00:34:48;;;;;;;11.35;7.15;;;18.60;99.90;;;;;;5053842;28;20186;-30
2023/07/24 00:37:14;;;;;;;10.73;6.97;;;18.60;99.90;;;;;;5051154;28;20198;-30
2023/07/24 00:39:40;;;;;;;13.60;8.05;;;18.60;99.90;;;;;;5050345;28;20208;-30
2023/07/24 00:42:06;;;;;;;9.95;6.90;;;18.60;99.90;;;;;;5033585;28;20219;-29
2023/07/24 00:44:32;;;;;;;10.15;7.10;;;18.60;99.90;;;;;;5049664;28;20236;-30
2023/07/24 00:46:58;;;;;;;10.45;7.47;;;18.60;99.90;;;;;;5053133;28;20185;-29
2023/07/24 00:49:24;;;;;;;9.68;7.30;;;18.60;99.90;;;;;;5041893;28;20224;-30
2023/07/24 00:51:52;;;;;;;13.40;8.23;;;18.50;99.90;;;;;;5049131;28;20186;-30
2023/07/24 00:54:19;;;;;;;10.00;7.78;;;18.50;99.90;;;;;;5045403;28;20182;-30
2023/07/24 00:56:45;;;;;;;10.18;7.18;;;18.40;99.90;;;;;;5050958;28;20216;-30
2023/07/24 00:59:11;;;;;;;10.20;8.02;;;18.30;99.90;;;;;;5035079;28;20206;-30
2023/07/24 01:01:39;;;;;;;9.68;7.28;;;18.30;99.90;;;;;;5066445;28;20238;-31
2023/07/24 01:04:06;;;;;;;11.18;7.78;;;18.30;99.90;;;;;;5035449;28;20197;-31
2023/07/24 01:06:32;;;;;;;14.75;7.03;;;18.30;99.90;;;;;;5060655;28;20239;-29
2023/07/24 01:08:58;;;;;;;12.35;7.85;;;18.30;99.90;;;;;;5055026;28;20202;-32
2023/07/24 01:11:37;;;;;;;9.35;7.55;;;18.40;99.90;;;;;;5044851;28;20178;-30
2023/07/24 01:14:16;;;;;;;10.57;7.38;;;18.40;99.90;;;;;;5064677;28;20170;-30
2023/07/24 01:16:43;;;;;;;11.00;7.50;;;18.30;99.90;;;;;;5048746;28;20221;-29
2023/07/24 01:19:22;;;;;;;13.10;8.48;;;18.30;99.90;;;;;;5065355;28;20266;-30
2023/07/24 01:22:29;;;;;;;12.10;8.05;;;18.20;99.90;;;;;;5048460;28;20178;-30
2023/07/24 01:25:36;;;;;;;11.35;7.78;;;18.10;99.90;;;;;;5052587;28;20178;-29
2023/07/24 01:28:07;;;;;;;10.68;6.78;;;18.10;99.90;;;;;;4995376;28;20274;-30
2023/07/24 01:30:33;;;;;;;10.77;7.60;;;18.10;99.90;;;;;;4976401;28;20179;-29
2023/07/24 01:32:59;;;;;;;12.23;7.80;;;18.10;99.90;;;;;;4999028;28;20194;-30
2023/07/24 01:35:27;;;;;;;12.02;7.68;;;18.10;99.90;;;;;;5047181;28;20189;-29
2023/07/24 01:37:54;;;;;;;11.00;7.40;;;18.10;99.90;;;;;;5056468;28;20244;-29
2023/07/24 01:40:21;;;;;;;10.80;7.65;;;18.10;99.90;;;;;;5058757;28;20206;-30
2023/07/24 01:42:49;;;;;;;13.52;8.07;;;18.10;99.90;;;;;;5044775;28;20182;-29
2023/07/24 01:45:15;;;;;;;11.75;7.93;;;18.10;99.90;;;;;;5044888;28;20182;-30
2023/07/24 01:47:41;;;;;;;12.07;7.40;;;18.10;99.90;;;;;;5061475;28;20188;-29
2023/07/24 01:50:07;;;;;;;11.82;8.52;;;18.20;99.90;;;;;;5052457;28;20209;-28
2023/07/24 01:52:33;;;;;;;13.30;8.00;;;18.10;99.90;;;;;;5035797;28;20193;-30
2023/07/24 01:54:59;;;;;;;11.27;7.25;;;18.20;99.90;;;;;;5042575;28;20196;-30
2023/07/24 01:57:25;;;;;;;13.43;8.05;;;18.00;99.90;;;;;;5051540;28;20201;-30
2023/07/24 01:59:51;;;;;;;10.23;7.32;;;18.00;99.90;;;;;;5052519;28;20209;-30
2023/07/24 02:02:16;;;;;;;9.63;7.97;;;18.00;99.90;;;;;;5040739;28;20178;-29
2023/07/24 02:04:42;;;;;;;9.82;7.60;;;18.00;99.90;;;;;;5051548;28;20196;-29
2023/07/24 02:07:08;;;;;;;10.20;7.50;;;18.00;99.90;;;;;;5054437;28;20182;-30
2023/07/24 02:09:34;;;;;;;10.10;7.75;;;18.00;99.90;;;;;;5049021;28;20210;-30
2023/07/24 02:12:02;;;;;;;10.52;7.03;;;18.00;99.90;;;;;;5057724;28;20189;-31
2023/07/24 02:14:28;;;;;;;10.93;7.47;;;17.90;99.90;;;;;;5057933;28;20200;-31
2023/07/24 02:16:53;;;;;;;13.32;8.43;;;17.90;99.90;;;;;;5048728;28;20209;-29
2023/07/24 02:19:19;;;;;;;9.63;7.45;;;17.90;99.90;;;;;;5045818;28;20194;-30
2023/07/24 02:21:45;;;;;;;11.50;7.60;;;17.90;99.90;;;;;;5051416;28;20228;-30
2023/07/24 02:24:11;;;;;;;10.43;7.65;;;17.90;99.90;;;;;;5066637;28;20182;-29
2023/07/24 02:26:36;;;;;;;13.10;8.05;;;17.80;99.90;;;;;;5070388;28;20190;-29
2023/07/24 02:29:02;;;;;;;10.73;8.05;;;17.80;99.90;;;;;;5064470;28;20213;-30
2023/07/24 02:31:28;;;;;;;10.60;7.88;;;17.60;99.90;;;;;;5046831;28;20210;-30
2023/07/24 02:33:56;;;;;;;9.85;7.75;;;17.50;99.90;;;;;;5051152;28;20185;-29
2023/07/24 02:36:22;;;;;;;10.48;7.90;;;17.60;99.90;;;;;;5050068;28;20216;-30
2023/07/24 02:38:47;;;;;;;13.02;8.15;;;17.60;99.90;;;;;;5039186;28;20202;-31
2023/07/24 02:41:13;;;;;;;10.82;7.15;;;17.60;99.90;;;;;;5059190;28;20197;-30
2023/07/24 02:43:39;;;;;;;11.07;7.93;;;17.60;99.90;;;;;;5040846;28;20274;-30
2023/07/24 02:46:05;;;;;;;12.38;8.00;;;17.60;99.90;;;;;;5044240;28;20197;-30
2023/07/24 02:48:31;;;;;;;12.52;7.82;;;17.60;99.90;;;;;;5043868;28;20204;-30
2023/07/24 02:50:56;;;;;;;10.85;7.90;;;17.60;99.90;;;;;;5054998;28;20178;-30
2023/07/24 02:53:22;;;;;;;10.48;7.72;;;17.50;99.90;;;;;;5043708;28;20192;-30
2023/07/24 02:55:48;;;;;;;12.52;8.27;;;17.50;99.90;;;;;;5036695;28;20170;-30
2023/07/24 02:58:14;;;;;;;12.18;7.53;;;17.50;99.90;;;;;;5052785;28;20212;-29
2023/07/24 03:00:40;;;;;;;12.05;7.75;;;17.50;99.90;;;;;;5047613;28;20185;-29
2023/07/24 03:03:06;;;;;;;10.60;8.02;;;17.40;99.90;;;;;;5045303;28;20185;-29
2023/07/24 03:05:34;;;;;;;10.00;7.37;;;17.40;99.90;;;;;;5047292;28;20181;-31
2023/07/24 03:08:00;;;;;;;11.52;7.72;;;17.30;99.90;;;;;;5061953;28;20234;-30
2023/07/24 03:10:26;;;;;;;11.37;7.63;;;17.20;99.90;;;;;;5048783;28;20182;-31
2023/07/24 03:12:52;;;;;;;11.63;7.70;;;17.20;99.90;;;;;;5058703;28;20189;-30
2023/07/24 03:15:18;;;;;;;10.35;7.45;;;17.20;99.90;;;;;;5046467;28;20219;-30
2023/07/24 03:17:44;;;;;;;9.95;7.55;;;17.10;99.90;;;;;;5051833;28;20209;-31
2023/07/24 03:20:20;;;;;;;10.83;7.47;;;17.10;99.90;;;;;;5048937;28;20201;-30
2023/07/24 03:22:46;;;;;;;11.83;7.80;;;17.10;99.90;;;;;;5036222;28;20193;-31
2023/07/24 03:25:12;;;;;;;11.83;8.33;;;17.10;99.90;;;;;;5041434;28;20268;-30
2023/07/24 03:27:39;;;;;;;10.67;7.40;;;17.00;99.90;;;;;;5043458;28;20187;-30
2023/07/24 03:30:05;;;;;;;11.63;7.50;;;17.00;99.90;;;;;;5049720;28;20208;-30
2023/07/24 03:32:31;;;;;;;11.63;8.10;;;17.00;99.90;;;;;;5043764;28;20189;-30
2023/07/24 03:34:57;;;;;;;10.63;7.43;;;16.90;99.90;;;;;;5054943;28;20239;-30
2023/07/24 03:37:22;;;;;;;11.32;7.93;;;16.90;99.90;;;;;;5038286;28;20320;-31
2023/07/24 03:39:48;;;;;;;12.23;7.67;;;16.70;99.90;;;;;;5044643;28;20213;-30
2023/07/24 03:42:26;;;;;;;12.57;8.10;;;16.70;99.90;;;;;;5031586;28;20182;-30
2023/07/24 03:44:52;;;;;;;13.17;8.53;;;16.70;99.90;;;;;;5065266;28;20189;-31
2023/07/24 03:47:17;;;;;;;10.67;8.30;;;16.70;99.90;;;;;;5045266;28;20192;-29
2023/07/24 03:49:43;;;;;;;11.83;8.73;;;16.70;99.90;;;;;;5064210;28;20240;-30
2023/07/24 03:52:09;;;;;;;12.17;8.23;;;16.70;99.90;;;;;;5054395;28;20258;-30
2023/07/24 03:54:35;;;;;;;11.63;8.10;;;16.70;99.90;;;;;;5041036;28;20182;-30
2023/07/24 03:57:00;;;;;;;11.50;7.73;;;16.70;99.90;;;;;;5056738;28;20201;-30
2023/07/24 03:59:26;;;;;;;11.53;8.03;;;16.70;99.90;;;;;;5052337;28;20204;-30
2023/07/24 04:01:52;;;;;;;9.57;7.37;;;16.60;99.90;;;;;;5059576;28;20185;-29
2023/07/24 04:04:18;;;;;;;12.50;7.80;;;16.50;99.90;;;;;;5039691;28;20181;-31
2023/07/24 04:06:46;;;;;;;11.43;8.57;;;16.50;99.90;;;;;;5041161;28;20186;-30
2023/07/24 04:09:14;;;;;;;10.25;7.70;;;16.50;99.90;;;;;;5039887;28;20197;-30
2023/07/24 04:11:43;;;;;;;10.63;7.47;;;16.60;99.90;;;;;;5054185;28;20690;-30
2023/07/24 04:14:09;;;;;;;11.40;7.85;;;16.70;99.90;;;;;;5047418;28;20274;-30
2023/07/24 04:16:35;;;;;;;13.17;7.80;;;16.80;99.90;;;;;;5050762;28;20229;-31
2023/07/24 04:19:01;;;;;;;14.67;9.17;;;16.90;99.90;;;;;;5035070;28;20806;-30
2023/07/24 04:21:27;;;;;;;11.77;9.00;;;16.80;99.90;;;;;;5048973;28;20281;-30
2023/07/24 04:23:53;;;;;;;13.53;8.60;;;16.90;99.90;;;;;;5044385;28;20213;-30
2023/07/24 04:26:18;;;;;;;12.20;7.80;;;16.90;99.90;;;;;;5049391;28;20184;-30
2023/07/24 04:28:44;;;;;;;11.17;8.23;;;17.00;99.90;;;;;;5042377;28;20212;-30
2023/07/24 04:31:10;;;;;;;11.57;8.13;;;17.10;99.90;;;;;;5054694;28;20276;-30
2023/07/24 04:33:36;;;;;;;11.87;8.83;;;17.10;99.90;;;;;;5057581;28;20174;-31
2023/07/24 04:36:02;;;;;;;12.80;8.23;;;17.10;99.90;;;;;;5055572;28;20224;-30
2023/07/24 04:38:27;;;;;;;13.87;8.70;;;17.10;99.90;;;;;;5061605;28;20226;-30
2023/07/24 04:40:53;;;;;;;13.13;8.23;;;17.20;99.90;;;;;;5057316;28;20208;-30
2023/07/24 04:43:19;;;;;;;11.20;8.33;;;17.20;99.90;;;;;;5055949;28;20178;-29
2023/07/24 04:45:45;;;;;;;11.52;8.15;;;17.30;99.90;;;;;;5050902;28;20443;-29
2023/07/24 04:48:11;;;;;;;13.70;8.13;;;17.30;99.90;;;;;;5056569;28;20185;-29
2023/07/24 04:50:36;;;;;;;12.70;7.93;;;17.40;99.90;;;;;;5055603;28;20181;-30
2023/07/24 04:53:02;;;;;;;10.20;7.78;;;17.50;99.90;;;;;;5046646;28;20655;-30
2023/07/24 04:55:28;;;;;;;12.25;7.85;;;17.50;99.90;;;;;;5038496;28;20305;-30
2023/07/24 04:57:54;;;;;;;10.38;7.80;;;17.60;99.90;;;;;;5054541;28;20212;-31
2023/07/24 05:00:20;;;;;;;11.07;8.18;;;17.60;99.90;;;;;;5044073;28;20190;-31
2023/07/24 05:02:45;;;;;;;11.48;8.27;;;17.60;99.90;;;;;;5057145;28;20186;-30
2023/07/24 05:05:11;;;;;;;13.10;8.82;;;17.60;99.90;;;;;;5058012;28;20265;-30
2023/07/24 05:07:37;;;;;;;10.75;7.85;;;17.70;99.90;;;;;;5054061;28;20201;-30
2023/07/24 05:10:03;;;;;;;13.38;8.80;;;17.70;99.90;;;;;;5054692;28;20244;-29
2023/07/24 05:12:29;;;;;;;12.60;8.88;;;17.80;99.90;;;;;;5033309;28;20182;-31
2023/07/24 05:14:55;;;;;;;11.45;8.57;;;17.80;99.90;;;;;;5035127;28;20206;-32
2023/07/24 05:17:21;;;;;;;10.93;8.15;;;17.70;99.90;;;;;;5046942;28;20292;-30
2023/07/24 05:19:47;;;;;;;10.05;7.88;;;17.80;99.90;;;;;;5058371;28;20231;-30
2023/07/24 05:22:12;;;;;;;13.07;8.57;;;17.80;99.90;;;;;;5050486;28;20211;-32
2023/07/24 05:24:38;;;;;;;15.23;8.40;;;17.80;99.90;;;;;;5064703;28;20632;-29
2023/07/24 05:27:05;;;;;;;10.40;8.13;;;17.90;99.90;;;;;;5038674;28;20189;-30
2023/07/24 05:29:32;;;;;;;13.00;8.60;;;17.90;99.90;;;;;;5036444;28;20218;-31
2023/07/24 05:31:58;;;;;;;13.77;8.30;;;17.90;99.90;;;;;;5066544;28;20178;-30
2023/07/24 05:34:25;;;;;;;12.40;8.48;;;17.90;99.90;;;;;;5049272;28;20177;-31
2023/07/24 05:36:51;;;;;;;11.40;8.68;;;17.90;99.90;;;;;;5073450;28;20202;-29
2023/07/24 05:39:16;;;;;;;10.57;7.70;;;17.90;99.90;;;;;;5053730;28;20206;-31
2023/07/24 05:41:42;;;;;;;10.70;7.70;;;17.90;99.90;;;;;;5035322;28;20182;-29
2023/07/24 05:44:08;;;;;;;11.85;8.48;;;17.90;99.90;;;;;;5041938;28;20173;-29
2023/07/24 05:46:34;;;;;;;12.82;8.77;;;18.00;99.90;;;;;;5045788;28;20186;-30
2023/07/24 05:49:01;;;;;;;11.07;7.93;;;18.00;99.90;;;;;;5069161;28;20201;-31
2023/07/24 05:51:27;;;;;;;11.68;8.15;;;17.90;99.90;;;;;;5041568;28;20195;-30
2023/07/24 05:53:53;;;;;;;10.70;8.00;;;17.90;99.90;;;;;;5063827;28;20181;-30
2023/07/24 05:56:19;;;;;;;11.85;8.25;;;18.00;99.90;;;;;;5051939;28;20259;-30
2023/07/24 05:58:44;;;;;;;12.35;8.60;;;18.00;99.90;;;;;;5043594;28;20255;-30
2023/07/24 06:01:10;;;;;;;12.40;7.95;;;18.00;99.90;;;;;;5043299;28;20182;-29
2023/07/24 06:03:36;;;;;;;12.25;8.85;;;18.00;99.90;;;;;;5051981;28;20231;-31
2023/07/24 06:06:02;;;;;;;11.35;7.45;;;18.10;99.90;;;;;;5042427;28;20175;-30
2023/07/24 06:08:28;;;;;;;12.48;8.70;;;18.10;99.90;;;;;;5032637;28;20199;-29
2023/07/24 06:10:54;;;;;;;11.73;8.90;;;18.10;99.90;;;;;;5051347;28;20174;-29
2023/07/24 06:13:20;;;;;;;11.77;8.77;;;18.10;99.90;;;;;;5035337;28;20190;-30
2023/07/24 06:15:50;;;;;;;9.90;8.25;;;18.10;99.90;;;;;;5051960;28;20193;-30
2023/07/24 06:18:16;;;;;;;12.00;8.45;;;18.20;99.90;;;;;;5043334;28;20218;-30
2023/07/24 06:20:42;;;;;;;12.13;8.60;;;18.20;99.90;;;;;;5040775;28;20210;-29
2023/07/24 06:23:08;;;;;;;12.52;8.43;;;18.20;99.90;;;;;;5057415;28;20182;-29
2023/07/24 06:25:34;;;;;;;12.70;8.38;;;18.10;99.90;;;;;;5032813;28;20182;-29
2023/07/24 06:27:59;;;;;;;12.60;8.88;;;18.10;99.90;;;;;;5060009;28;20173;-29
2023/07/24 06:30:25;;;;;;;13.65;8.38;;;18.10;99.90;;;;;;5072161;28;20276;-30
2023/07/24 06:32:52;;;;;;;11.65;9.02;;;18.20;99.90;;;;;;5054026;28;20182;-30
2023/07/24 06:35:17;;;;;;;9.75;7.95;;;18.20;99.90;;;;;;5051532;28;20188;-30
2023/07/24 06:37:43;;;;;;;12.48;8.43;;;18.20;99.90;;;;;;5043487;28;20247;-31
2023/07/24 06:40:10;;;;;;;12.68;8.32;;;18.30;99.90;;;;;;5051830;28;20194;-29
2023/07/24 06:42:35;;;;;;;10.40;8.20;;;18.40;99.90;;;;;;5044466;28;20204;-28
2023/07/24 06:45:01;;;;;;;12.25;8.23;;;18.50;99.90;;;;;;5036122;28;20242;-29
2023/07/24 06:47:27;;;;;;;16.23;8.68;;;18.60;99.90;;;;;;5036031;28;20178;-30
2023/07/24 06:49:53;;;;;;;11.43;8.20;;;18.60;99.90;;;;;;5050852;28;20229;-30
2023/07/24 06:52:19;;;;;;;12.27;8.52;;;18.70;99.90;;;;;;5050794;28;20216;-29
2023/07/24 06:54:44;;;;;;;13.10;8.60;;;18.80;99.90;;;;;;5040036;28;20174;-30
2023/07/24 06:57:10;;;;;;;13.40;9.43;;;19.00;99.90;;;;;;5051007;28;20232;-29
2023/07/24 06:59:36;;;;;;;11.77;8.00;;;19.10;99.90;;;;;;5047490;28;20196;-30
2023/07/24 07:02:02;;;;;;;13.93;8.52;;;19.20;99.90;;;;;;5068513;28;20185;-32
2023/07/24 07:04:28;;;;;;;11.70;8.45;;;19.30;99.90;;;;;;5031805;28;20185;-30
2023/07/24 07:06:54;;;;;;;11.98;8.48;;;19.40;99.90;;;;;;5034268;28;20182;-29
2023/07/24 07:09:20;;;;;;;11.55;8.90;;;19.60;99.90;;;;;;5049375;28;20198;-30
2023/07/24 07:11:45;;;;;;;12.23;8.48;;;19.60;99.90;;;;;;5050596;28;20224;-29
2023/07/24 07:14:12;;;;;;;11.15;8.18;;;19.80;99.90;;;;;;5034011;28;20182;-30
2023/07/24 07:16:38;;;;;;;12.77;8.35;;;19.90;99.90;;;;;;5038727;28;20285;-29
2023/07/24 07:19:04;;;;;;;12.10;8.25;;;20.00;99.90;;;;;;5050832;28;20285;-30
2023/07/24 07:21:30;;;;;;;9.68;7.85;;;20.20;99.90;;;;;;5037804;28;20252;-30
2023/07/24 07:23:55;;;;;;;12.27;8.18;;;20.40;99.90;;;;;;5038482;28;20672;-28
2023/07/24 07:26:22;;;;;;;10.27;8.13;;;20.50;99.90;;;;;;5050457;28;20190;-30
2023/07/24 07:28:48;;;;;;;13.20;8.75;;;20.60;99.90;;;;;;5050202;28;20256;-31
2023/07/24 07:31:14;;;;;;;11.13;8.25;;;20.70;99.90;;;;;;5067139;28;20214;-30
2023/07/24 07:33:40;;;;;;;12.00;8.07;;;20.90;99.90;;;;;;5050263;28;20236;-29
2023/07/24 07:36:06;;;;;;;10.40;8.07;;;20.90;99.90;;;;;;5049808;28;20178;-33
2023/07/24 07:38:32;;;;;;;12.82;8.75;;;20.90;99.90;;;;;;5038749;28;20199;-30
2023/07/24 07:40:58;;;;;;;13.70;8.68;;;21.00;99.90;;;;;;5049801;28;20186;-29
2023/07/24 07:43:24;;;;;;;11.60;8.23;;;21.10;99.90;;;;;;5052525;28;20186;-29
2023/07/24 07:45:49;;;;;;;9.88;8.10;;;21.10;99.90;;;;;;5053703;28;20176;-30
2023/07/24 07:48:15;;;;;;;15.68;8.25;;;21.10;99.90;;;;;;5052452;28;20177;-31
2023/07/24 07:50:41;;;;;;;11.05;8.93;;;21.10;99.90;;;;;;5039454;28;20184;-30
2023/07/24 07:53:07;;;;;;;14.82;8.68;;;21.10;99.90;;;;;;5049324;28;20236;-31
2023/07/24 07:55:33;;;;;;;12.45;8.45;;;21.00;99.90;;;;;;5029759;28;20262;-31
2023/07/24 07:57:58;;;;;;;11.48;8.20;;;20.90;99.90;;;;;;5048898;28;20232;-31
2023/07/24 08:00:25;;;;;;;12.60;8.02;;;20.90;99.90;;;;;;5048018;28;20187;-30
2023/07/24 08:02:51;;;;;;;11.00;7.35;;;20.80;99.90;;;;;;5049779;28;20166;-31
2023/07/24 08:05:16;;;;;;;10.02;7.07;;;20.80;99.90;;;;;;5033659;28;20209;-30
2023/07/24 08:07:42;;;;;;;8.43;7.05;;;20.90;99.90;;;;;;5065308;28;20182;-29
2023/07/24 08:10:08;;;;;;;12.40;7.07;;;20.80;99.90;;;;;;5049419;28;20205;-32
2023/07/24 08:12:34;;;;;;;13.45;7.63;;;20.80;99.90;;;;;;5025001;28;20332;-31
2023/07/24 08:15:00;;;;;;;10.38;6.65;;;20.70;99.90;;;;;;5049264;28;20193;-29
2023/07/24 08:17:26;;;;;;;9.35;6.93;;;20.70;99.90;;;;;;5049674;28;20220;-28
2023/07/24 08:19:52;;;;;;;8.75;6.70;;;20.60;99.90;;;;;;5031847;28;20210;-30
2023/07/24 08:22:19;;;;;;;10.68;6.47;;;20.50;99.90;;;;;;5049823;28;20265;-30
2023/07/24 08:24:45;;;;;;;10.20;6.78;;;20.50;99.90;;;;;;5032994;28;20298;-31
2023/07/24 08:27:11;;;;;;;7.40;6.10;;;20.40;99.90;;;;;;5057715;28;20324;-32
2023/07/24 08:29:38;;;;;;;9.90;6.50;;;20.30;99.90;;;;;;5029571;28;20289;-30
2023/07/24 08:32:04;;;;;;;7.35;6.25;;;20.30;99.90;;;;;;5078093;28;20224;-31
2023/07/24 08:34:30;;;;;;;8.70;5.90;;;20.30;99.90;;;;;;5048545;28;20711;-30
2023/07/24 08:36:56;;;;;;;7.40;4.97;;;20.40;99.90;;;;;;5047281;28;20242;-30
2023/07/24 08:39:22;;;;;;;5.22;4.55;;;20.40;99.90;;;;;;5051211;28;20289;-29
2023/07/24 08:41:48;;;;;;;5.63;4.72;;;20.50;99.90;;;;;;5041144;28;20189;-31
2023/07/24 08:44:14;;;;;;;6.38;4.50;;;20.60;99.90;;;;;;5049327;28;20200;-30
2023/07/24 08:46:41;;;;;;;6.15;4.75;;;20.70;99.90;;;;;;5053743;28;20235;-30
2023/07/24 08:49:11;;;;;;;5.50;4.40;;;20.80;99.90;;;;;;5052544;28;20214;-33
2023/07/24 08:51:37;;;;;;;5.43;4.47;;;20.90;99.90;;;;;;5044764;28;20182;-30
2023/07/24 08:54:04;;;;;;;7.38;4.68;;;20.90;99.90;;;;;;5036703;28;20178;-30
2023/07/24 08:56:30;;;;;;;6.10;4.47;;;21.00;99.90;;;;;;5049051;28;20206;-30
2023/07/24 08:58:56;;;;;;;7.10;5.03;;;21.10;99.90;;;;;;5038554;28;20251;-30
2023/07/24 09:01:22;;;;;;;7.50;4.75;;;21.30;99.90;;;;;;5041688;28;20181;-30
2023/07/24 09:03:48;;;;;;;8.52;5.32;;;21.40;99.90;;;;;;5029445;28;20242;-31
2023/07/24 09:06:13;;;;;;;7.78;5.30;;;21.60;99.90;;;;;;5049352;28;20256;-29
2023/07/24 09:08:42;;;;;;;7.18;5.78;;;21.70;99.90;;;;;;5049633;28;20726;-31
2023/07/24 09:11:09;;;;;;;9.00;5.75;;;21.80;99.90;;;;;;5036409;28;20174;-29
2023/07/24 09:13:41;;;;;;;7.85;5.78;;;21.80;99.90;;;;;;5049069;28;20269;-30
2023/07/24 09:16:07;;;;;;;8.43;5.70;;;21.90;99.90;;;;;;5037559;28;20646;-31
2023/07/24 09:18:43;;;;;;;7.93;5.93;;;21.90;99.90;;;;;;5068443;28;20197;-30
2023/07/24 09:21:12;;;;;;;8.27;5.47;;;21.80;99.90;;;;;;5052849;28;20189;-30
2023/07/24 09:23:40;;;;;;;7.78;5.80;;;21.80;99.90;;;;;;5052716;28;20178;-30
2023/07/24 09:26:07;;;;;;;6.38;5.45;;;21.70;99.90;;;;;;5032192;28;20183;-29
2023/07/24 09:28:34;;;;;;;8.25;5.88;;;21.70;99.90;;;;;;5052379;28;20198;-30
2023/07/24 09:31:00;;;;;;;6.30;5.55;;;21.60;99.90;;;;;;5035606;28;20185;-32
2023/07/24 09:33:37;;;;;;;10.63;6.22;;;21.60;99.90;;;;;;5034005;28;20191;-31
2023/07/24 09:36:04;;;;;;;7.00;5.65;;;21.60;99.90;;;;;;5052321;28;20656;-29
2023/07/24 09:38:30;;;;;;;8.15;6.15;;;21.60;99.90;;;;;;5052037;28;20217;-30
2023/07/24 09:40:57;;;;;;;8.15;5.88;;;21.50;99.90;;;;;;5035459;28;20178;-32
2023/07/24 09:43:25;;;;;;;8.38;5.82;;;21.50;99.90;;;;;;5053371;28;20181;-31
2023/07/24 09:45:52;;;;;;;6.63;5.70;;;21.50;99.90;;;;;;5067501;28;20166;-30
2023/07/24 09:48:20;;;;;;;8.02;5.97;;;21.50;99.90;;;;;;5037427;28;20206;-30
2023/07/24 09:50:48;;;;;;;8.57;5.88;;;21.40;99.90;;;;;;5052646;28;20360;-30
2023/07/24 09:53:20;;;;;;;7.47;5.63;;;21.40;99.90;;;;;;5043834;28;20243;-30
2023/07/24 09:56:06;;;;;;;7.55;5.93;;;21.30;99.90;;;;;;5051635;28;20185;-30
2023/07/24 09:58:40;;;;;;;8.73;6.35;;;21.30;99.90;;;;;;5051991;28;20221;-30
2023/07/24 10:01:08;;;;;;;8.73;6.20;;;21.30;99.90;;;;;;5052131;28;20176;-31
2023/07/24 10:03:35;;;;;;;7.22;5.85;;;21.20;99.90;;;;;;5041415;28;20186;-30
2023/07/24 10:06:02;;;;;;;7.63;5.85;;;21.20;99.90;;;;;;5058092;28;20177;-30
2023/07/24 10:08:28;;;;;;;6.32;5.00;;;21.10;99.90;;;;;;5055308;28;20233;-33
2023/07/24 10:10:55;;;;;;;7.32;5.32;;;21.10;99.90;;;;;;5045597;28;20232;-30
2023/07/24 10:13:21;;;;;;;8.23;6.22;;;21.00;99.90;;;;;;5037534;28;20194;-32
2023/07/24 10:15:48;;;;;;;7.00;6.18;;;21.00;99.90;;;;;;5039405;28;20196;-30
2023/07/24 10:18:17;;;;;;;7.68;6.05;;;20.90;99.90;;;;;;5041900;28;20217;-30
2023/07/24 10:20:45;;;;;;;7.22;5.88;;;20.90;99.90;;;;;;5040603;28;20199;-32
2023/07/24 10:23:16;;;;;;;9.73;6.15;;;20.80;99.90;;;;;;5059082;28;20193;-29
2023/07/24 10:25:45;;;;;;;7.57;5.82;;;20.80;99.90;;;;;;5051181;28;20170;-30
2023/07/24 10:28:12;;;;;;;7.22;5.88;;;20.60;99.90;;;;;;5042831;28;20285;-30
2023/07/24 10:30:42;;;;;;;8.38;5.90;;;20.60;99.90;;;;;;5054032;28;20185;-31
2023/07/24 10:33:09;;;;;;;7.13;5.75;;;20.50;99.90;;;;;;5039341;28;20174;-32
2023/07/24 10:35:40;;;;;;;9.10;6.70;;;20.50;99.90;;;;;;5051235;28;20212;-31
2023/07/24 10:38:06;;;;;;;8.85;5.75;;;20.40;99.90;;;;;;5041105;28;20213;-31
2023/07/24 10:40:33;;;;;;;7.63;5.85;;;20.30;99.90;;;;;;5039042;28;20185;-30
2023/07/24 10:43:10;;;;;;;9.93;6.28;;;20.20;99.90;;;;;;5051038;28;20223;-32
2023/07/24 10:45:40;;;;;;;11.63;6.60;;;20.20;99.90;;;;;;5051156;28;20186;-31
2023/07/24 10:48:06;;;;;;;8.48;6.03;;;20.10;99.90;;;;;;5042666;28;20185;-29
2023/07/24 10:50:46;;;;;;;9.60;6.57;;;20.10;99.90;;;;;;5052731;28;20185;-29
2023/07/24 10:53:16;;;;;;;9.55;6.18;;;20.10;99.90;;;;;;5039357;28;20189;-30
2023/07/24 10:55:44;;;;;;;6.78;5.70;;;20.10;99.90;;;;;;5050292;28;20276;-31
2023/07/24 10:58:11;;;;;;;7.82;6.03;;;20.00;99.90;;;;;;5042421;28;20213;-31
2023/07/24 11:00:38;;;;;;;9.23;6.32;;;20.00;99.90;;;;;;5066398;28;20184;-30
2023/07/24 11:03:04;;;;;;;7.55;6.00;;;19.90;99.90;;;;;;5045818;28;20174;-32
2023/07/24 11:05:30;;;;;;;9.10;5.85;;;19.90;99.90;;;;;;5066408;28;20185;-30
2023/07/24 11:07:55;;;;;;;7.50;6.38;;;19.90;99.90;;;;;;5041884;28;20197;-31
2023/07/24 11:10:22;;;;;;;9.52;6.30;;;19.80;99.90;;;;;;5050769;28;20174;-31
2023/07/24 11:12:50;;;;;;;9.40;6.70;;;19.80;99.90;;;;;;5042637;28;20212;-30
2023/07/24 11:15:16;;;;;;;7.60;6.40;;;19.80;99.90;;;;;;5049557;28;20197;-30
2023/07/24 11:17:42;;;;;;;9.70;6.88;;;19.70;99.90;;;;;;5053935;28;20215;-31
2023/07/24 11:20:13;;;;;;;9.60;6.35;;;19.80;99.90;;;;;;5039723;28;20210;-33
2023/07/24 11:22:41;;;;;;;9.07;6.78;;;19.80;99.90;;;;;;5050231;28;20174;-30
2023/07/24 11:25:08;;;;;;;8.48;6.97;;;19.80;99.90;;;;;;5053141;28;20189;-30
2023/07/24 11:27:42;;;;;;;8.43;6.38;;;19.80;99.90;;;;;;5039945;28;20232;-31
2023/07/24 11:30:09;;;;;;;9.00;6.50;;;20.00;99.90;;;;;;5058697;28;20202;-30
2023/07/24 11:32:35;;;;;;;8.02;6.28;;;20.30;99.90;;;;;;5042978;28;20208;-30
2023/07/24 11:35:02;;;;;;;9.48;6.65;;;20.50;99.90;;;;;;5032095;28;20186;-30
2023/07/24 11:37:29;;;;;;;7.45;6.20;;;20.70;99.90;;;;;;5067679;28;20209;-30
2023/07/24 11:40:04;;;;;;;9.75;6.53;;;20.80;99.90;;;;;;5042496;28;20217;-30
2023/07/24 11:42:30;;;;;;;7.10;6.03;;;21.00;99.90;;;;;;5050090;28;20347;-30
2023/07/24 11:45:00;;;;;;;7.40;6.05;;;21.30;99.90;;;;;;5033953;28;20177;-30
2023/07/24 11:47:26;;;;;;;7.13;6.25;;;21.40;99.90;;;;;;5033243;28;20192;-31
2023/07/24 11:50:02;;;;;;;8.65;6.40;;;21.40;99.90;;;;;;5033357;28;20223;-30
2023/07/24 11:52:45;;;;;;;7.57;5.97;;;21.60;99.90;;;;;;5041316;28;20243;-30
2023/07/24 11:55:33;;;;;;;7.47;5.55;;;21.80;99.90;;;;;;5052573;28;20210;-30
2023/07/24 11:58:01;;;;;;;7.13;4.72;;;22.00;99.90;;;;;;5026506;28;20202;-31
2023/07/24 12:00:30;;;;;;;5.93;4.57;;;22.20;99.90;;;;;;5058227;28;20228;-30
2023/07/24 12:03:04;;;;;;;6.47;5.38;;;22.40;99.90;;;;;;5045836;28;20263;-31
2023/07/24 12:05:38;;;;;;;6.15;4.95;;;22.50;99.90;;;;;;5035964;28;20197;-30
2023/07/24 12:08:04;;;;;;;7.07;4.80;;;22.60;99.90;;;;;;5033013;28;20185;-31
2023/07/24 12:10:30;;;;;;;5.60;4.82;;;22.60;99.90;;;;;;5032739;28;20263;-30
2023/07/24 12:13:02;;;;;;;7.03;5.63;;;22.60;99.90;;;;;;5030657;28;20265;-30
2023/07/24 12:15:27;;;;;;;7.28;4.65;;;22.50;99.90;;;;;;5049849;28;20194;-31
2023/07/24 12:17:56;;;;;;;6.68;4.93;;;22.60;99.90;;;;;;5053200;28;20259;-32
2023/07/24 12:20:24;;;;;;;8.68;5.30;;;22.70;99.90;;;;;;5037135;28;20173;-31
2023/07/24 12:22:50;;;;;;;8.02;5.43;;;22.90;99.90;;;;;;5042351;28;20181;-30
2023/07/24 12:25:16;;;;;;;5.88;4.35;;;23.10;99.90;;;;;;5034216;28;20186;-31
2023/07/24 12:27:42;;;;;;;5.53;4.72;;;23.00;99.90;;;;;;5057324;28;20187;-32
2023/07/24 12:30:08;;;;;;;8.80;4.70;;;23.10;99.90;;;;;;5054444;28;20208;-29
2023/07/24 12:32:35;;;;;;;5.85;4.93;;;23.00;99.90;;;;;;5054998;28;20206;-31
2023/07/24 12:35:01;;;;;;;5.45;4.20;;;23.00;99.90;;;;;;5038657;28;20212;-31
2023/07/24 12:37:26;;;;;;;5.38;4.38;;;23.10;99.90;;;;;;5060943;28;20216;-31
2023/07/24 12:39:52;;;;;;;4.97;4.22;;;23.00;99.90;;;;;;5040232;28;20193;-29